createdAt,value
2022-08-05T00:02:25.694Z,51.69
2022-08-05T00:06:05.446Z,51.03
2022-08-05T00:08:51.409Z,51.28
2022-08-05T00:11:59.782Z,51.44
2022-08-05T00:15:54.225Z,51.40
2022-08-05T00:18:25.454Z,52.10
2022-08-05T00:21:31.461Z,52.89
2022-08-05T00:24:42.366Z,53.55
2022-08-05T00:27:45.235Z,55.00
2022-08-05T00:30:52.109Z,56.72
2022-08-05T00:34:56.057Z,58.30
2022-08-05T00:37:19.199Z,59.62
2022-08-05T00:40:28.142Z,62.87
2022-08-05T00:43:47.302Z,64.88
2022-08-05T00:46:54.298Z,65.64
2022-08-05T00:50:08.458Z,66.04
2022-08-05T00:53:45.154Z,66.07
2022-08-05T00:56:34.361Z,66.47
2022-08-05T00:59:44.334Z,66.58
2022-08-05T01:02:47.595Z,67.76
2022-08-05T01:05:54.864Z,67.14
2022-08-05T01:08:57.876Z,66.00
2022-08-05T01:12:18.114Z,66.77
2022-08-05T01:15:36.264Z,67.51
2022-08-05T01:18:43.519Z,66.89
2022-08-05T01:21:51.613Z,67.34
2022-08-05T01:25:11.070Z,67.18
2022-08-05T01:28:27.196Z,67.27
2022-08-05T01:31:44.662Z,67.81
2022-08-05T01:34:59.200Z,67.65
2022-08-05T01:38:04.310Z,68.43
2022-08-05T01:41:08.891Z,68.48
2022-08-05T01:44:14.145Z,68.79
2022-08-05T01:47:21.262Z,68.96
2022-08-05T01:50:50.974Z,68.92
2022-08-05T01:53:58.654Z,68.67
2022-08-05T01:58:11.868Z,68.79
2022-08-05T02:00:31.621Z,68.96
2022-08-05T02:03:38.227Z,69.17
2022-08-05T02:06:42.661Z,69.52
2022-08-05T02:09:48.194Z,69.43
2022-08-05T02:13:15.884Z,69.67
2022-08-05T02:16:52.434Z,70.21
2022-08-05T02:20:01.759Z,70.60
2022-08-05T02:23:09.561Z,71.17
2022-08-05T02:26:17.236Z,72.15
2022-08-05T02:29:24.291Z,72.11
2022-08-05T02:32:51.257Z,71.98
2022-08-05T02:35:59.135Z,71.94
2022-08-05T02:39:08.745Z,71.75
2022-08-05T02:42:11.989Z,71.51
2022-08-05T02:45:52.033Z,71.07
2022-08-05T02:48:55.291Z,71.24
2022-08-05T02:52:03.917Z,70.26
2022-08-05T02:55:10.662Z,70.24
2022-08-05T02:58:16.133Z,70.44
2022-08-05T03:01:21.635Z,68.35
2022-08-05T03:04:25.669Z,68.80
2022-08-05T03:07:59.322Z,68.68
2022-08-05T03:11:53.288Z,68.47
2022-08-05T03:14:14.446Z,69.22
2022-08-05T03:17:17.522Z,69.64
2022-08-05T03:20:24.505Z,69.77
2022-08-05T03:23:28.281Z,70.06
2022-08-05T03:26:32.782Z,70.41
2022-08-05T03:29:45.972Z,70.62
2022-08-05T03:33:00.095Z,71.09
2022-08-05T03:36:03.972Z,71.75
2022-08-05T03:39:20.183Z,72.08
2022-08-05T03:42:31.958Z,71.83
2022-08-05T03:45:57.754Z,71.84
2022-08-05T03:48:58.949Z,71.81
2022-08-05T03:52:48.658Z,72.55
2022-08-05T03:56:09.629Z,72.12
2022-08-05T03:59:02.962Z,72.25
2022-08-05T04:02:06.492Z,72.90
2022-08-05T04:05:10.781Z,72.49
2022-08-05T04:08:34.982Z,72.55
2022-08-05T04:11:47.239Z,74.15
2022-08-05T04:14:54.252Z,72.37
2022-08-05T04:18:06.805Z,71.86
2022-08-05T04:21:11.134Z,73.17
2022-08-05T04:24:19.162Z,72.37
2022-08-05T04:27:41.633Z,71.45
2022-08-05T04:30:47.186Z,71.66
2022-08-05T04:34:17.928Z,70.95
2022-08-05T04:37:13.507Z,71.61
2022-08-05T04:40:19.658Z,71.16
2022-08-05T04:43:22.604Z,68.77
2022-08-05T04:46:28.756Z,68.78
2022-08-05T04:49:38.807Z,68.64
2022-08-05T04:52:54.082Z,68.57
2022-08-05T04:56:34.017Z,68.93
2022-08-05T04:59:21.755Z,68.82
2022-08-05T05:02:36.795Z,69.39
2022-08-05T05:06:40.779Z,69.18
2022-08-05T05:09:05.509Z,67.46
2022-08-05T05:12:08.630Z,66.20
2022-08-05T05:15:11.617Z,65.86
2022-08-05T05:18:31.234Z,64.82
2022-08-05T05:21:36.441Z,64.22
2022-08-05T05:24:58.186Z,62.46
2022-08-05T05:28:02.201Z,62.06
2022-08-05T05:31:05.660Z,61.12
2022-08-05T05:34:11.670Z,61.51
2022-08-05T05:37:15.160Z,59.51
2022-08-05T05:40:20.379Z,58.33
2022-08-05T05:43:58.200Z,58.03
2022-08-05T05:46:51.557Z,57.92
2022-08-05T05:50:01.290Z,58.29
2022-08-05T05:53:20.866Z,56.73
2022-08-05T05:56:33.306Z,56.66
2022-08-05T05:59:40.119Z,55.83
2022-08-05T06:02:43.814Z,57.96
2022-08-05T06:05:54.187Z,56.51
2022-08-05T06:08:58.721Z,55.55
2022-08-05T06:12:02.731Z,55.10
2022-08-05T06:15:08.063Z,55.79
2022-08-05T06:18:11.129Z,55.46
2022-08-05T06:21:16.632Z,55.18
2022-08-05T06:24:25.722Z,55.27
2022-08-05T06:28:11.283Z,54.94
2022-08-05T06:30:52.678Z,53.04
2022-08-05T06:34:06.985Z,52.54
2022-08-05T06:37:11.720Z,51.06
2022-08-05T06:40:21.082Z,51.88
2022-08-05T06:43:57.478Z,52.35
2022-08-05T06:46:46.983Z,49.74
2022-08-05T06:50:00.165Z,50.01
2022-08-05T06:53:11.705Z,50.43
2022-08-05T06:56:27.148Z,46.77
2022-08-05T06:59:29.831Z,47.60
2022-08-05T07:02:47.429Z,45.07
2022-08-05T07:05:56.424Z,40.90
2022-08-05T07:09:04.016Z,40.89
2022-08-05T07:12:07.630Z,39.96
2022-08-05T07:15:34.799Z,37.94
2022-08-05T07:18:52.443Z,38.47
2022-08-05T07:22:00.920Z,36.41
2022-08-05T07:25:22.416Z,34.58
2022-08-05T07:28:29.754Z,33.59
2022-08-05T07:31:54.065Z,32.57
2022-08-05T07:34:57.801Z,29.06
2022-08-05T07:38:04.176Z,29.49
2022-08-05T07:42:08.331Z,28.92
2022-08-05T07:44:32.723Z,28.27
2022-08-05T07:47:42.621Z,27.72
2022-08-05T07:50:45.473Z,26.88
2022-08-05T07:53:50.507Z,25.38
2022-08-05T07:57:14.844Z,26.66
2022-08-05T08:00:17.576Z,25.08
2022-08-05T08:03:21.556Z,25.30
2022-08-05T08:06:28.100Z,24.49
2022-08-05T08:09:31.334Z,23.60
2022-08-05T08:12:48.669Z,22.50
2022-08-05T08:16:35.473Z,24.55
2022-08-05T08:19:37.912Z,24.08
2022-08-05T08:22:38.124Z,21.85
2022-08-05T08:25:59.810Z,21.91
2022-08-05T08:29:45.465Z,21.81
2022-08-05T08:32:28.200Z,21.79
2022-08-05T08:35:35.239Z,22.17
2022-08-05T08:38:44.179Z,21.46
2022-08-05T08:41:59.813Z,20.35
2022-08-05T08:45:23.751Z,21.29
2022-08-05T08:49:03.308Z,21.26
2022-08-05T08:52:14.240Z,21.50
2022-08-05T08:55:19.334Z,22.57
2022-08-05T08:58:44.626Z,21.19
2022-08-05T09:01:57.345Z,20.75
2022-08-05T09:05:17.798Z,22.05
2022-08-05T09:08:26.592Z,20.84
2022-08-05T09:11:50.685Z,18.44
2022-08-05T09:14:59.434Z,18.91
2022-08-05T09:18:10.216Z,19.82
2022-08-05T09:21:21.209Z,19.12
2022-08-05T09:24:38.738Z,18.50
2022-08-05T09:28:05.497Z,18.76
2022-08-05T09:31:44.110Z,18.02
2022-08-05T09:34:46.581Z,15.46
2022-08-05T09:38:16.536Z,16.50
2022-08-05T09:41:16.080Z,16.45
2022-08-05T09:44:40.023Z,16.92
2022-08-05T09:47:49.018Z,16.22
2022-08-05T09:51:15.282Z,16.47
2022-08-05T09:54:31.639Z,17.45
2022-08-05T09:57:35.361Z,15.35
2022-08-05T10:00:53.439Z,15.44
2022-08-05T10:04:16.022Z,16.81
2022-08-05T10:08:10.756Z,17.69
2022-08-05T10:10:44.300Z,16.77
2022-08-05T10:13:49.222Z,16.75
2022-08-05T10:16:56.194Z,15.28
2022-08-05T10:20:04.518Z,14.51
2022-08-05T10:23:55.418Z,14.44
2022-08-05T10:26:52.808Z,17.07
2022-08-05T10:30:41.829Z,16.90
2022-08-05T10:33:18.416Z,16.30
2022-08-05T10:36:23.581Z,13.68
2022-08-05T10:40:03.063Z,13.85
2022-08-05T10:43:00.863Z,13.75
2022-08-05T10:46:08.983Z,12.48
2022-08-05T10:49:16.776Z,12.46
2022-08-05T10:52:49.832Z,12.33
2022-08-05T10:56:14.529Z,12.46
2022-08-05T11:00:02.484Z,12.30
2022-08-05T11:03:22.821Z,13.22
2022-08-05T11:06:30.816Z,13.07
2022-08-05T11:09:46.206Z,12.77
2022-08-05T11:12:54.385Z,11.75
2022-08-05T11:16:21.635Z,10.89
2022-08-05T11:20:11.015Z,10.97
2022-08-05T11:22:53.986Z,10.66
2022-08-05T11:26:09.346Z,10.85
2022-08-05T11:29:37.616Z,12.10
2022-08-05T11:32:40.168Z,12.39
2022-08-05T11:36:08.170Z,11.57
2022-08-05T11:39:14.740Z,10.22
2022-08-05T11:42:24.188Z,12.18
2022-08-05T11:46:27.419Z,12.28
2022-08-05T11:48:54.507Z,11.11
2022-08-05T11:51:57.914Z,11.04
2022-08-05T11:55:07.409Z,9.82
2022-08-05T11:58:12.003Z,9.72
2022-08-05T12:01:19.111Z,9.58
2022-08-05T12:04:23.156Z,9.61
2022-08-05T12:08:10.329Z,9.15
2022-08-05T12:11:03.424Z,10.17
2022-08-05T12:14:10.296Z,10.33
2022-08-05T12:18:02.774Z,11.12
2022-08-05T12:20:38.914Z,11.21
2022-08-05T12:24:11.489Z,12.32
2022-08-05T12:27:32.758Z,11.11
2022-08-05T12:30:38.723Z,10.41
2022-08-05T12:33:50.704Z,11.17
2022-08-05T12:36:58.758Z,11.18
2022-08-05T12:40:03.118Z,10.94
2022-08-05T12:43:07.715Z,10.77
2022-08-05T12:46:28.074Z,8.04
2022-08-05T12:50:03.315Z,8.62
2022-08-05T12:53:16.530Z,8.63
2022-08-05T12:56:34.138Z,8.35
2022-08-05T13:00:09.076Z,9.13
2022-08-05T13:03:13.639Z,8.62
2022-08-05T13:06:18.125Z,8.23
2022-08-05T13:09:28.326Z,7.93
2022-08-05T13:12:31.470Z,9.11
2022-08-05T13:15:41.449Z,9.67
2022-08-05T13:18:58.818Z,9.00
2022-08-05T13:22:01.937Z,8.60
2022-08-05T13:25:18.740Z,7.54
2022-08-05T13:28:22.572Z,7.62
2022-08-05T13:31:34.018Z,8.93
2022-08-05T13:34:50.154Z,9.09
2022-08-05T13:37:55.336Z,8.33
2022-08-05T13:41:00.516Z,8.30
2022-08-05T13:44:03.549Z,8.27
2022-08-05T13:47:09.083Z,9.18
2022-08-05T13:50:16.477Z,8.12
2022-08-05T13:53:19.796Z,7.57
2022-08-05T13:56:22.603Z,6.89
2022-08-05T13:59:27.029Z,8.19
2022-08-05T14:02:31.342Z,8.35
2022-08-05T14:06:04.749Z,7.73
2022-08-05T14:08:59.484Z,6.73
2022-08-05T14:12:17.766Z,7.82
2022-08-05T14:16:05.294Z,8.15
2022-08-05T14:18:43.747Z,8.81
2022-08-05T14:22:08.775Z,9.00
2022-08-05T14:25:21.858Z,9.97
2022-08-05T14:28:27.021Z,10.70
2022-08-05T14:31:54.241Z,10.86
2022-08-05T14:34:54.707Z,13.65
2022-08-05T14:38:01.107Z,16.21
2022-08-05T14:41:07.454Z,16.64
2022-08-05T14:44:20.733Z,17.62
2022-08-05T14:48:02.614Z,18.19
2022-08-05T14:50:47.889Z,18.35
2022-08-05T14:54:28.681Z,18.24
2022-08-05T14:57:15.078Z,18.80
2022-08-05T15:00:20.027Z,19.45
2022-08-05T15:03:22.972Z,19.28
2022-08-05T15:06:27.943Z,18.70
2022-08-05T15:09:51.224Z,17.69
2022-08-05T15:13:01.121Z,14.58
2022-08-05T15:16:06.691Z,13.09
2022-08-05T15:19:23.192Z,12.77
2022-08-05T15:22:28.106Z,14.55
2022-08-05T15:25:41.070Z,16.00
2022-08-05T15:28:53.946Z,17.24
2022-08-05T15:31:56.482Z,14.13
2022-08-05T15:34:59.359Z,13.30
2022-08-05T15:38:34.811Z,14.99
2022-08-05T15:41:56.387Z,17.82
2022-08-05T15:44:54.832Z,20.51
2022-08-05T15:47:57.744Z,20.07
2022-08-05T15:51:05.608Z,20.97
2022-08-05T15:54:09.061Z,22.02
2022-08-05T15:57:19.777Z,21.36
2022-08-05T16:00:26.525Z,21.43
2022-08-05T16:03:33.971Z,23.15
2022-08-05T16:06:36.926Z,22.09
2022-08-05T16:09:41.741Z,22.15
2022-08-05T16:12:44.477Z,22.53
2022-08-05T16:15:47.609Z,22.24
2022-08-05T16:18:51.921Z,22.33
2022-08-05T16:22:00.854Z,19.93
2022-08-05T16:25:09.417Z,18.46
2022-08-05T16:28:14.148Z,18.95
2022-08-05T16:31:18.321Z,19.40
2022-08-05T16:34:22.881Z,22.13
2022-08-05T16:38:03.119Z,21.09
2022-08-05T16:40:55.730Z,18.42
2022-08-05T16:44:06.468Z,17.82
2022-08-05T16:47:28.609Z,18.54
2022-08-05T16:50:32.175Z,19.54
2022-08-05T16:54:05.728Z,18.35
2022-08-05T16:57:53.077Z,19.37
2022-08-05T17:00:52.362Z,21.48
2022-08-05T17:03:54.980Z,23.92
2022-08-05T17:07:01.150Z,23.18
2022-08-05T17:10:11.029Z,26.12
2022-08-05T17:13:16.928Z,27.03
2022-08-05T17:16:30.129Z,27.45
2022-08-05T17:19:36.369Z,27.30
2022-08-05T17:22:39.170Z,30.27
2022-08-05T17:25:42.228Z,31.87
2022-08-05T17:28:47.134Z,31.04
2022-08-05T17:31:58.509Z,33.09
2022-08-05T17:35:02.215Z,34.16
2022-08-05T17:38:09.452Z,31.84
2022-08-05T17:42:16.854Z,32.57
2022-08-05T17:44:35.962Z,33.01
2022-08-05T17:47:39.066Z,32.15
2022-08-05T17:50:42.817Z,32.12
2022-08-05T17:53:45.931Z,33.32
2022-08-05T17:56:57.299Z,32.72
2022-08-05T18:00:03.483Z,32.99
2022-08-05T18:03:09.085Z,33.02
2022-08-05T18:06:15.526Z,34.65
2022-08-05T18:09:18.569Z,33.00
2022-08-05T18:12:24.526Z,32.67
2022-08-05T18:15:27.837Z,32.34
2022-08-05T18:18:34.056Z,32.37
2022-08-05T18:22:09.438Z,32.96
2022-08-05T18:25:06.538Z,33.24
2022-08-05T18:28:10.029Z,33.46
2022-08-05T18:31:12.719Z,33.92
2022-08-05T18:34:21.727Z,34.63
2022-08-05T18:37:34.184Z,35.17
2022-08-05T18:41:55.881Z,35.23
2022-08-05T18:44:05.440Z,34.85
2022-08-05T18:47:09.449Z,35.39
2022-08-05T18:50:45.069Z,36.34
2022-08-05T18:53:50.842Z,36.15
2022-08-05T18:56:53.653Z,36.51
2022-08-05T19:00:03.276Z,37.28
2022-08-05T19:03:06.907Z,38.03
2022-08-05T19:06:18.909Z,38.45
2022-08-05T19:09:25.300Z,39.61
2022-08-05T19:12:32.221Z,39.72
2022-08-05T19:15:57.194Z,39.47
2022-08-05T19:18:57.960Z,39.07
2022-08-05T19:22:00.493Z,39.18
2022-08-05T19:25:04.207Z,39.43
2022-08-05T19:28:06.853Z,40.15
2022-08-05T19:31:17.750Z,40.04
2022-08-05T19:34:22.591Z,40.14
2022-08-05T19:37:35.073Z,40.94
2022-08-05T19:40:49.053Z,42.31
2022-08-05T19:44:05.423Z,41.97
2022-08-05T19:47:16.476Z,41.70
2022-08-05T19:50:20.093Z,41.82
2022-08-05T19:54:04.524Z,41.00
2022-08-05T19:56:45.749Z,40.90
2022-08-05T19:59:55.953Z,41.48
2022-08-05T20:03:13.915Z,42.11
2022-08-05T20:06:29.132Z,42.16
2022-08-05T20:09:54.080Z,43.08
2022-08-05T20:12:55.283Z,42.75
2022-08-05T20:15:58.074Z,43.05
2022-08-05T20:19:03.358Z,43.21
2022-08-05T20:22:05.888Z,43.40
2022-08-05T20:25:12.505Z,43.35
2022-08-05T20:28:15.072Z,43.98
2022-08-05T20:31:22.876Z,44.58
2022-08-05T20:34:31.057Z,45.43
2022-08-05T20:38:06.208Z,45.91
2022-08-05T20:40:56.997Z,45.59
2022-08-05T20:44:05.185Z,45.72
2022-08-05T20:47:20.596Z,45.56
2022-08-05T20:50:34.700Z,46.16
2022-08-05T20:53:40.934Z,46.73
2022-08-05T20:56:43.954Z,46.94
2022-08-05T21:00:19.550Z,47.39
2022-08-05T21:03:09.621Z,47.50
2022-08-05T21:06:27.531Z,47.93
2022-08-05T21:09:31.602Z,47.90
2022-08-05T21:12:36.734Z,49.35
2022-08-05T21:15:41.931Z,48.95
2022-08-05T21:18:54.306Z,49.39
2022-08-05T21:21:58.283Z,50.04
2022-08-05T21:25:00.934Z,49.58
2022-08-05T21:28:04.010Z,49.00
2022-08-05T21:31:06.597Z,49.42
2022-08-05T21:34:10.454Z,50.05
2022-08-05T21:37:13.614Z,50.45
2022-08-05T21:40:16.782Z,50.46
2022-08-05T21:43:24.449Z,51.80
2022-08-05T21:46:28.557Z,51.67
2022-08-05T21:49:58.770Z,51.72
2022-08-05T21:52:58.812Z,52.51
2022-08-05T21:56:16.909Z,52.94
2022-08-05T21:59:25.106Z,54.08
2022-08-05T22:02:33.081Z,54.61
2022-08-05T22:05:48.869Z,54.55
2022-08-05T22:08:52.472Z,54.04
2022-08-05T22:11:55.828Z,53.90
2022-08-05T22:14:59.790Z,54.12
2022-08-05T22:18:03.149Z,53.80
2022-08-05T22:21:18.828Z,53.36
2022-08-05T22:24:52.413Z,52.73
2022-08-05T22:28:09.152Z,52.18
2022-08-05T22:31:13.066Z,51.81
2022-08-05T22:34:25.699Z,51.81
2022-08-05T22:37:59.013Z,51.46
2022-08-05T22:40:55.142Z,51.69
2022-08-05T22:43:59.361Z,52.33
2022-08-05T22:47:05.725Z,51.78
2022-08-05T22:50:22.903Z,51.47
2022-08-05T22:53:35.917Z,51.54
2022-08-05T22:56:40.098Z,52.04
2022-08-05T22:59:51.794Z,52.05
2022-08-05T23:02:57.127Z,53.02
2022-08-05T23:06:01.010Z,53.50
2022-08-05T23:09:27.308Z,53.81
2022-08-05T23:12:28.607Z,54.34
2022-08-05T23:15:35.227Z,55.25
2022-08-05T23:18:39.283Z,55.42
2022-08-05T23:21:48.382Z,55.49
2022-08-05T23:24:51.708Z,56.16
2022-08-05T23:28:00.249Z,56.45
2022-08-05T23:31:16.942Z,56.79
2022-08-05T23:34:24.557Z,57.51
2022-08-05T23:37:27.515Z,57.67
2022-08-05T23:40:39.797Z,58.53
2022-08-05T23:44:05.389Z,58.91
2022-08-05T23:47:15.119Z,59.75
2022-08-05T23:50:20.271Z,60.18
2022-08-05T23:53:23.355Z,60.70
2022-08-05T23:56:31.365Z,60.47
